createdAt,value
2023-05-22T00:00:00.426Z,100.0
2023-05-22T00:02:00.685Z,100.0
2023-05-22T00:04:00.832Z,100.0
2023-05-22T00:06:00.520Z,100.0
2023-05-22T00:08:00.649Z,100.0
2023-05-22T00:10:00.939Z,100.0
2023-05-22T00:12:00.980Z,100.0
2023-05-22T00:14:00.755Z,100.0
2023-05-22T00:16:00.417Z,100.0
2023-05-22T00:18:00.594Z,100.0
2023-05-22T00:20:00.862Z,100.0
2023-05-22T00:22:00.876Z,100.0
2023-05-22T00:24:00.727Z,100.0
2023-05-22T00:26:00.380Z,100.0
2023-05-22T00:28:00.809Z,100.0
2023-05-22T00:30:00.865Z,100.0
2023-05-22T00:32:00.586Z,100.0
2023-05-22T00:34:00.987Z,100.0
2023-05-22T00:36:00.425Z,100.0
2023-05-22T00:38:02.602Z,100.0
2023-05-22T00:40:00.419Z,100.0
2023-05-22T00:42:00.580Z,100.0
2023-05-22T00:44:00.532Z,100.0
2023-05-22T00:46:00.898Z,100.0
2023-05-22T00:48:00.573Z,100.0
2023-05-22T00:50:01.055Z,100.0
2023-05-22T00:52:01.174Z,100.0
2023-05-22T00:54:00.900Z,100.0
2023-05-22T00:56:00.740Z,100.0
2023-05-22T00:58:04.070Z,100.0
2023-05-22T01:00:02.207Z,100.0
2023-05-22T01:02:00.736Z,100.0
2023-05-22T01:04:01.443Z,100.0
2023-05-22T01:06:00.454Z,100.0
2023-05-22T01:08:00.590Z,100.0
2023-05-22T01:10:00.931Z,100.0
2023-05-22T01:12:11.190Z,100.0
2023-05-22T01:14:06.720Z,100.0
2023-05-22T01:16:09.747Z,100.0
2023-05-22T01:18:09.732Z,100.0
2023-05-22T01:20:09.213Z,100.0
2023-05-22T01:22:11.756Z,100.0
2023-05-22T01:24:20.222Z,100.0
2023-05-22T01:26:20.227Z,100.0
2023-05-22T01:28:11.111Z,100.0
2023-05-22T01:30:19.686Z,100.0
2023-05-22T01:32:02.366Z,100.0
2023-05-22T01:34:03.626Z,100.0
2023-05-22T01:36:01.427Z,100.0
2023-05-22T01:38:02.265Z,100.0
2023-05-22T01:40:01.574Z,100.0
2023-05-22T01:42:00.750Z,100.0
2023-05-22T01:44:01.233Z,100.0
2023-05-22T01:46:00.794Z,100.0
2023-05-22T01:48:00.670Z,100.0
2023-05-22T01:50:00.919Z,100.0
2023-05-22T01:52:07.293Z,100.0
2023-05-22T01:54:08.093Z,100.0
2023-05-22T01:56:03.295Z,100.0
2023-05-22T01:58:09.403Z,100.0
2023-05-22T02:00:06.352Z,100.0
2023-05-22T02:02:05.249Z,100.0
2023-05-22T02:04:01.093Z,100.0
2023-05-22T02:06:06.056Z,100.0
2023-05-22T02:08:01.923Z,100.0
2023-05-22T02:10:01.600Z,100.0
2023-05-22T02:12:01.373Z,100.0
2023-05-22T02:14:00.669Z,100.0
2023-05-22T02:16:01.323Z,100.0
2023-05-22T02:18:01.058Z,100.0
2023-05-22T02:20:00.650Z,100.0
2023-05-22T02:22:00.974Z,100.0
2023-05-22T02:24:01.388Z,100.0
2023-05-22T02:26:00.751Z,100.0
2023-05-22T02:28:00.720Z,100.0
2023-05-22T02:30:00.933Z,100.0
2023-05-22T02:32:00.671Z,100.0
2023-05-22T02:34:00.975Z,100.0
2023-05-22T02:36:00.598Z,100.0
2023-05-22T02:38:01.136Z,100.0
2023-05-22T02:40:00.901Z,100.0
2023-05-22T02:42:00.561Z,100.0
2023-05-22T02:44:00.411Z,100.0
2023-05-22T02:46:00.732Z,100.0
2023-05-22T02:48:00.788Z,100.0
2023-05-22T02:50:00.544Z,100.0
2023-05-22T02:52:00.674Z,100.0
2023-05-22T02:54:00.640Z,100.0
2023-05-22T02:56:00.404Z,100.0
2023-05-22T02:58:01.093Z,100.0
2023-05-22T03:00:00.719Z,100.0
2023-05-22T03:02:00.711Z,100.0
2023-05-22T03:04:00.514Z,100.0
2023-05-22T03:06:01.089Z,100.0
2023-05-22T03:08:00.556Z,100.0
2023-05-22T03:10:00.770Z,100.0
2023-05-22T03:12:00.502Z,100.0
2023-05-22T03:14:00.397Z,100.0
2023-05-22T03:16:00.783Z,100.0
2023-05-22T03:18:00.604Z,100.0
2023-05-22T03:20:00.403Z,100.0
2023-05-22T03:22:00.859Z,100.0
2023-05-22T03:24:00.495Z,100.0
2023-05-22T03:26:00.436Z,100.0
2023-05-22T03:28:00.646Z,100.0
2023-05-22T03:30:00.600Z,100.0
2023-05-22T03:32:01.486Z,100.0
2023-05-22T03:34:01.080Z,100.0
2023-05-22T03:36:00.414Z,100.0
2023-05-22T03:38:00.537Z,100.0
2023-05-22T03:40:00.427Z,100.0
2023-05-22T03:42:00.608Z,100.0
2023-05-22T03:44:02.776Z,100.0
2023-05-22T03:46:00.576Z,100.0
2023-05-22T03:48:00.806Z,100.0
2023-05-22T03:50:00.864Z,100.0
2023-05-22T03:52:01.093Z,100.0
2023-05-22T03:54:00.420Z,100.0
2023-05-22T03:56:00.777Z,100.0
2023-05-22T03:58:00.735Z,100.0
2023-05-22T04:00:01.216Z,100.0
2023-05-22T04:02:00.536Z,100.0
2023-05-22T04:04:00.393Z,100.0
2023-05-22T04:06:00.662Z,100.0
2023-05-22T04:08:00.830Z,100.0
2023-05-22T04:10:00.392Z,100.0
2023-05-22T04:12:01.244Z,100.0
2023-05-22T04:14:02.548Z,100.0
2023-05-22T04:16:00.713Z,100.0
2023-05-22T04:18:00.650Z,100.0
2023-05-22T04:20:01.002Z,100.0
2023-05-22T04:22:00.578Z,100.0
2023-05-22T04:24:01.059Z,100.0
2023-05-22T04:26:00.427Z,100.0
2023-05-22T04:28:00.568Z,100.0
2023-05-22T04:30:01.877Z,100.0
2023-05-22T04:32:01.105Z,100.0
2023-05-22T04:34:00.476Z,100.0
2023-05-22T04:36:00.940Z,100.0
2023-05-22T04:38:00.881Z,100.0
2023-05-22T04:40:00.596Z,100.0
2023-05-22T04:42:00.597Z,100.0
2023-05-22T04:44:00.870Z,100.0
2023-05-22T04:46:00.408Z,100.0
2023-05-22T04:48:00.880Z,100.0
2023-05-22T04:50:01.437Z,100.0
2023-05-22T04:52:00.533Z,100.0
2023-05-22T04:54:00.460Z,100.0
2023-05-22T04:56:01.165Z,100.0
2023-05-22T04:58:00.746Z,100.0
2023-05-22T05:00:00.872Z,100.0
2023-05-22T05:02:00.793Z,100.0
2023-05-22T05:04:01.551Z,100.0
2023-05-22T05:06:00.568Z,100.0
2023-05-22T05:08:00.954Z,100.0
2023-05-22T05:10:00.800Z,100.0
2023-05-22T05:12:01.132Z,100.0
2023-05-22T05:14:00.917Z,100.0
2023-05-22T05:16:00.384Z,100.0
2023-05-22T05:18:00.616Z,100.0
2023-05-22T05:20:00.520Z,100.0
2023-05-22T05:22:00.504Z,100.0
2023-05-22T05:24:00.778Z,100.0
2023-05-22T05:26:00.417Z,100.0
2023-05-22T05:28:00.409Z,100.0
2023-05-22T05:30:00.421Z,100.0
2023-05-22T05:32:00.845Z,100.0
2023-05-22T05:34:00.439Z,100.0
2023-05-22T05:36:00.821Z,100.0
2023-05-22T05:38:00.729Z,100.0
2023-05-22T05:40:00.790Z,100.0
2023-05-22T05:42:00.855Z,100.0
2023-05-22T05:44:00.853Z,100.0
2023-05-22T05:46:00.798Z,100.0
2023-05-22T05:48:00.621Z,100.0
2023-05-22T05:50:00.693Z,100.0
2023-05-22T05:52:00.589Z,100.0
2023-05-22T05:54:02.891Z,100.0
2023-05-22T05:56:00.882Z,100.0
2023-05-22T05:58:00.607Z,100.0
2023-05-22T06:00:00.491Z,100.0
2023-05-22T06:02:00.600Z,100.0
2023-05-22T06:04:01.025Z,100.0
2023-05-22T06:06:00.887Z,100.0
2023-05-22T06:08:00.898Z,100.0
2023-05-22T06:10:00.679Z,100.0
2023-05-22T06:12:00.414Z,100.0
2023-05-22T06:14:01.019Z,100.0
2023-05-22T06:16:02.814Z,100.0
2023-05-22T06:18:00.800Z,100.0
2023-05-22T06:20:00.731Z,100.0
2023-05-22T06:22:00.959Z,100.0
2023-05-22T06:24:00.422Z,100.0
2023-05-22T06:26:00.684Z,100.0
2023-05-22T06:28:00.529Z,100.0
2023-05-22T06:30:00.608Z,100.0
2023-05-22T06:32:01.129Z,100.0
2023-05-22T06:34:00.889Z,100.0
2023-05-22T06:36:00.481Z,100.0
2023-05-22T06:38:00.440Z,100.0
2023-05-22T06:40:00.685Z,100.0
2023-05-22T06:42:00.957Z,100.0
2023-05-22T06:44:01.026Z,100.0
2023-05-22T06:46:03.547Z,100.0
2023-05-22T06:48:00.566Z,100.0
2023-05-22T06:52:02.211Z,97.5
2023-05-22T06:54:00.601Z,98.4
2023-05-22T06:56:00.727Z,97.5
2023-05-22T06:58:00.623Z,94.9
2023-05-22T07:00:00.476Z,93.4
2023-05-22T07:02:00.551Z,95.9
2023-05-22T07:04:02.031Z,95.0
2023-05-22T07:06:00.628Z,95.6
2023-05-22T07:08:00.887Z,95.7
2023-05-22T07:10:00.527Z,96.5
2023-05-22T07:12:00.497Z,97.2
2023-05-22T07:14:00.646Z,96.2
2023-05-22T07:16:01.003Z,95.3
2023-05-22T07:18:00.650Z,93.9
2023-05-22T07:20:00.978Z,92.0
2023-05-22T07:22:00.584Z,92.5
2023-05-22T07:24:01.091Z,92.4
2023-05-22T07:26:00.436Z,91.6
2023-05-22T07:28:00.854Z,94.0
2023-05-22T07:30:00.555Z,94.1
2023-05-22T07:32:00.910Z,92.1
2023-05-22T07:34:00.505Z,92.5
2023-05-22T07:36:00.732Z,91.9
2023-05-22T07:38:01.420Z,91.6
2023-05-22T07:40:01.030Z,87.9
2023-05-22T07:42:01.700Z,85.9
2023-05-22T07:44:00.865Z,86.5
2023-05-22T07:46:00.458Z,88.2
2023-05-22T07:48:00.862Z,87.4
2023-05-22T07:50:00.822Z,83.7
2023-05-22T07:52:01.505Z,84.1
2023-05-22T07:54:01.055Z,82.7
2023-05-22T07:56:02.736Z,81.7
2023-05-22T07:58:00.683Z,82.0
2023-05-22T08:00:00.506Z,81.6
2023-05-22T08:02:00.565Z,77.2
2023-05-22T08:04:00.735Z,76.9
2023-05-22T08:06:01.823Z,75.9
2023-05-22T08:08:00.839Z,78.3
2023-05-22T08:10:01.826Z,77.1
2023-05-22T08:12:00.495Z,75.8
2023-05-22T08:14:01.065Z,72.9
2023-05-22T08:16:01.554Z,76.2
2023-05-22T08:18:00.834Z,74.5
2023-05-22T08:20:01.365Z,76.7
2023-05-22T08:22:00.592Z,69.7
2023-05-22T08:24:01.072Z,71.8
2023-05-22T08:26:00.495Z,69.8
2023-05-22T08:28:01.129Z,72.5
2023-05-22T08:30:00.912Z,73.4
2023-05-22T08:32:01.680Z,72.3
2023-05-22T08:34:00.585Z,68.4
2023-05-22T08:36:00.921Z,64.2
2023-05-22T08:38:00.403Z,67.0
2023-05-22T08:40:00.658Z,68.7
2023-05-22T08:42:00.542Z,65.8
2023-05-22T08:44:01.330Z,66.7
2023-05-22T08:46:03.258Z,65.7
2023-05-22T08:48:03.758Z,63.8
2023-05-22T08:50:00.989Z,64.7
2023-05-22T08:52:06.728Z,63.7
2023-05-22T08:54:04.543Z,64.1
2023-05-22T08:56:01.984Z,60.5
2023-05-22T08:58:01.502Z,63.9
2023-05-22T09:00:00.560Z,61.2
2023-05-22T09:02:04.472Z,63.2
2023-05-22T09:04:01.969Z,62.9
2023-05-22T09:06:01.286Z,63.9
2023-05-22T09:08:16.061Z,60.3
2023-05-22T09:10:00.402Z,59.8
2023-05-22T09:12:00.636Z,59.5
2023-05-22T09:14:08.177Z,58.3
2023-05-22T09:16:08.482Z,58.6
2023-05-22T09:18:03.248Z,57.4
2023-05-22T09:20:00.440Z,58.7
2023-05-22T09:22:01.255Z,57.0
2023-05-22T09:24:00.441Z,58.0
2023-05-22T09:26:01.858Z,57.5
2023-05-22T09:28:00.719Z,57.8
2023-05-22T09:30:00.847Z,58.3
2023-05-22T09:32:00.883Z,58.6
2023-05-22T09:34:00.978Z,59.3
2023-05-22T09:36:00.544Z,56.0
2023-05-22T09:38:00.516Z,60.7
2023-05-22T09:40:04.266Z,56.8
2023-05-22T09:42:00.838Z,57.7
2023-05-22T09:44:02.121Z,56.9
2023-05-22T09:46:02.040Z,54.1
2023-05-22T09:48:00.613Z,54.6
2023-05-22T09:50:02.216Z,54.5
2023-05-22T09:52:03.181Z,55.4
2023-05-22T09:54:02.972Z,56.9
2023-05-22T09:56:04.308Z,53.2
2023-05-22T09:58:03.060Z,54.8
2023-05-22T10:00:03.058Z,53.2
2023-05-22T10:02:01.041Z,51.0
2023-05-22T10:04:03.244Z,50.6
2023-05-22T10:06:01.776Z,52.6
2023-05-22T10:08:08.745Z,53.1
2023-05-22T10:10:03.979Z,54.9
2023-05-22T10:12:05.270Z,52.0
2023-05-22T10:14:02.698Z,51.0
2023-05-22T10:16:02.560Z,52.8
2023-05-22T10:18:01.187Z,50.1
2023-05-22T10:20:02.207Z,50.7
2023-05-22T10:24:00.927Z,52.0
2023-05-22T10:26:01.232Z,48.0
2023-05-22T10:28:01.307Z,49.1
2023-05-22T10:30:09.760Z,45.1
2023-05-22T10:32:13.834Z,45.7
2023-05-22T10:34:03.626Z,46.7
2023-05-22T10:36:03.570Z,46.7
2023-05-22T10:38:19.352Z,48.9
2023-05-22T10:40:03.238Z,47.1
2023-05-22T10:42:00.789Z,46.6
2023-05-22T10:44:01.430Z,47.4
2023-05-22T10:46:01.719Z,47.5
2023-05-22T10:48:02.709Z,48.8
2023-05-22T10:50:03.894Z,49.1
2023-05-22T10:52:01.994Z,51.8
2023-05-22T10:54:00.960Z,52.3
2023-05-22T10:56:09.651Z,53.4
2023-05-22T10:58:11.842Z,53.9
2023-05-22T11:00:05.870Z,53.7
2023-05-22T11:02:00.652Z,55.9
2023-05-22T11:04:09.539Z,54.2
2023-05-22T11:06:00.400Z,51.3
2023-05-22T11:08:09.743Z,54.1
2023-05-22T11:10:00.444Z,55.0
2023-05-22T11:12:14.783Z,58.8
2023-05-22T11:14:01.117Z,54.7
2023-05-22T11:16:03.935Z,55.8
2023-05-22T11:18:02.361Z,55.8
2023-05-22T11:20:03.241Z,55.2
2023-05-22T11:22:02.209Z,54.6
2023-05-22T11:24:00.618Z,54.9
2023-05-22T11:26:18.227Z,55.7
2023-05-22T11:28:02.240Z,59.9
2023-05-22T11:30:00.818Z,57.9
2023-05-22T11:32:01.071Z,58.5
2023-05-22T11:34:01.001Z,59.0
2023-05-22T11:36:01.796Z,61.1
2023-05-22T11:38:03.835Z,63.7
2023-05-22T11:40:03.189Z,64.0
2023-05-22T11:42:00.605Z,62.3
2023-05-22T11:44:01.422Z,61.8
2023-05-22T11:46:04.886Z,62.1
2023-05-22T11:48:00.977Z,61.8
2023-05-22T11:50:00.830Z,63.1
2023-05-22T11:52:00.574Z,65.3
2023-05-22T11:54:00.546Z,64.5
2023-05-22T11:56:01.470Z,63.0
2023-05-22T11:58:02.192Z,60.3
2023-05-22T12:00:00.846Z,59.0
2023-05-22T12:02:01.209Z,56.4
2023-05-22T12:04:00.629Z,55.4
2023-05-22T12:06:00.901Z,56.1
2023-05-22T12:08:01.044Z,56.9
2023-05-22T12:10:00.840Z,57.4
2023-05-22T12:12:00.598Z,56.4
2023-05-22T12:14:01.743Z,54.9
2023-05-22T12:16:00.885Z,53.5
2023-05-22T12:18:00.553Z,52.1
2023-05-22T12:20:00.715Z,48.8
2023-05-22T12:22:03.504Z,49.8
2023-05-22T12:24:02.871Z,47.7
2023-05-22T12:26:01.786Z,49.1
2023-05-22T12:28:00.747Z,43.7
2023-05-22T12:30:08.340Z,39.8
2023-05-22T12:32:01.913Z,42.2
2023-05-22T12:34:03.210Z,41.3
2023-05-22T12:36:06.514Z,40.8
2023-05-22T12:38:00.581Z,41.0
2023-05-22T12:40:03.236Z,40.5
2023-05-22T12:42:01.190Z,43.3
2023-05-22T12:44:01.277Z,44.2
2023-05-22T12:46:02.729Z,44.3
2023-05-22T12:48:00.445Z,45.3
2023-05-22T12:50:01.222Z,44.4
2023-05-22T12:52:01.193Z,46.3
2023-05-22T12:54:01.581Z,44.3
2023-05-22T12:56:00.690Z,44.9
2023-05-22T12:58:01.077Z,47.0
2023-05-22T13:00:06.566Z,43.6
2023-05-22T13:06:00.914Z,45.3
2023-05-22T13:08:01.132Z,44.9
2023-05-22T13:10:02.376Z,43.3
2023-05-22T13:12:00.635Z,43.8
2023-05-22T13:14:00.438Z,44.7
2023-05-22T13:16:00.590Z,43.8
2023-05-22T13:18:01.079Z,45.0
2023-05-22T13:20:00.826Z,43.1
2023-05-22T13:22:00.525Z,41.5
2023-05-22T13:24:00.477Z,40.1
2023-05-22T13:26:01.112Z,39.9
2023-05-22T13:28:00.853Z,42.0
2023-05-22T13:30:00.808Z,43.9
2023-05-22T13:32:01.084Z,43.7
2023-05-22T13:34:02.445Z,45.3
2023-05-22T13:36:00.690Z,49.1
2023-05-22T13:38:00.915Z,48.5
2023-05-22T13:40:00.689Z,49.7
2023-05-22T13:42:00.780Z,50.8
2023-05-22T13:44:00.734Z,51.7
2023-05-22T13:46:00.410Z,52.4
2023-05-22T13:48:01.134Z,51.4
2023-05-22T13:50:00.634Z,51.2
2023-05-22T13:52:00.886Z,50.6
2023-05-22T13:54:01.133Z,52.0
2023-05-22T13:56:00.794Z,52.3
2023-05-22T13:58:01.022Z,54.5
2023-05-22T14:00:01.085Z,55.7
2023-05-22T14:02:00.666Z,55.2
2023-05-22T14:04:00.403Z,56.8
2023-05-22T14:06:00.609Z,58.7
2023-05-22T14:08:00.917Z,58.2
2023-05-22T14:10:01.742Z,60.4
2023-05-22T14:12:01.174Z,59.2
2023-05-22T14:14:00.453Z,59.1
2023-05-22T14:16:00.436Z,61.6
2023-05-22T14:18:00.716Z,61.0
2023-05-22T14:20:01.291Z,63.7
2023-05-22T14:22:00.678Z,71.1
2023-05-22T14:24:01.014Z,79.1
2023-05-22T14:26:00.468Z,80.8
2023-05-22T14:28:00.982Z,85.1
2023-05-22T14:30:00.590Z,93.9
2023-05-22T14:32:02.659Z,92.4
2023-05-22T14:34:00.394Z,96.1
2023-05-22T14:36:01.019Z,96.4
2023-05-22T14:38:00.448Z,98.9
2023-05-22T14:40:00.398Z,98.9
2023-05-22T14:42:00.808Z,90.5
2023-05-22T14:44:00.972Z,88.3
2023-05-22T14:46:00.383Z,84.6
2023-05-22T14:48:00.591Z,88.8
2023-05-22T14:50:14.703Z,91.5
2023-05-22T14:52:00.653Z,90.5
2023-05-22T14:54:00.724Z,93.5
2023-05-22T14:56:00.716Z,99.8
2023-05-22T14:58:00.611Z,99.1
2023-05-22T15:00:00.860Z,99.9
2023-05-22T15:02:00.473Z,98.7
2023-05-22T15:04:00.566Z,95.9
2023-05-22T15:06:00.396Z,96.5
2023-05-22T15:08:00.894Z,99.8
2023-05-22T15:10:00.410Z,100.0
2023-05-22T15:12:00.628Z,100.0
2023-05-22T15:14:00.875Z,100.0
2023-05-22T15:16:00.569Z,100.0
2023-05-22T15:18:00.849Z,100.0
2023-05-22T15:20:00.791Z,100.0
2023-05-22T15:22:08.821Z,100.0
2023-05-22T15:24:00.796Z,100.0
2023-05-22T15:26:00.484Z,100.0
2023-05-22T15:28:00.733Z,100.0
2023-05-22T15:30:00.650Z,100.0
2023-05-22T15:32:01.107Z,100.0
2023-05-22T15:34:00.536Z,84.4
2023-05-22T15:36:00.883Z,94.8
2023-05-22T15:38:00.542Z,100.0
2023-05-22T15:40:00.977Z,100.0
2023-05-22T15:42:06.357Z,100.0
2023-05-22T15:44:00.962Z,100.0
2023-05-22T15:46:00.587Z,100.0
2023-05-22T15:48:01.485Z,100.0
2023-05-22T15:50:00.408Z,100.0
2023-05-22T15:52:01.405Z,100.0
2023-05-22T15:54:00.578Z,100.0
2023-05-22T15:56:00.878Z,100.0
2023-05-22T15:58:01.668Z,100.0
2023-05-22T16:00:00.594Z,100.0
2023-05-22T16:02:00.466Z,100.0
2023-05-22T16:04:00.710Z,100.0
2023-05-22T16:06:00.721Z,100.0
2023-05-22T16:08:00.940Z,100.0
2023-05-22T16:10:00.681Z,100.0
2023-05-22T16:12:01.035Z,100.0
2023-05-22T16:14:00.421Z,100.0
2023-05-22T16:16:00.709Z,100.0
2023-05-22T16:18:00.729Z,100.0
2023-05-22T16:20:00.849Z,100.0
2023-05-22T16:22:00.595Z,100.0
2023-05-22T16:24:00.420Z,100.0
2023-05-22T16:26:00.602Z,100.0
2023-05-22T16:28:01.068Z,100.0
2023-05-22T16:30:00.381Z,100.0
2023-05-22T16:32:00.914Z,100.0
2023-05-22T16:34:00.609Z,100.0
2023-05-22T16:36:00.714Z,100.0
2023-05-22T16:38:00.553Z,100.0
2023-05-22T16:40:00.785Z,100.0
2023-05-22T16:42:00.702Z,100.0
2023-05-22T16:44:00.807Z,100.0
2023-05-22T16:46:00.431Z,100.0
2023-05-22T16:48:01.016Z,100.0
2023-05-22T16:50:01.032Z,100.0
2023-05-22T16:52:00.493Z,100.0
2023-05-22T16:54:00.510Z,100.0
2023-05-22T16:56:00.852Z,100.0
2023-05-22T16:58:00.647Z,100.0
2023-05-22T17:00:00.448Z,100.0
2023-05-22T17:02:00.909Z,100.0
2023-05-22T17:04:00.464Z,100.0
2023-05-22T17:06:00.437Z,100.0
2023-05-22T17:08:00.856Z,100.0
2023-05-22T17:10:00.590Z,100.0
2023-05-22T17:12:00.562Z,100.0
2023-05-22T17:14:00.724Z,100.0
2023-05-22T17:16:00.529Z,100.0
2023-05-22T17:18:00.524Z,100.0
2023-05-22T17:20:00.927Z,100.0
2023-05-22T17:22:00.921Z,100.0
2023-05-22T17:24:00.398Z,100.0
2023-05-22T17:26:00.598Z,100.0
2023-05-22T17:28:00.459Z,100.0
2023-05-22T17:30:00.898Z,100.0
2023-05-22T17:32:00.751Z,100.0
2023-05-22T17:34:00.506Z,100.0
2023-05-22T17:36:00.398Z,100.0
2023-05-22T17:38:00.552Z,100.0
2023-05-22T17:40:00.591Z,100.0
2023-05-22T17:42:00.814Z,100.0
2023-05-22T17:44:00.934Z,100.0
2023-05-22T17:46:00.943Z,100.0
2023-05-22T17:48:00.690Z,100.0
2023-05-22T17:50:00.587Z,100.0
2023-05-22T17:52:00.434Z,100.0
2023-05-22T17:54:00.406Z,100.0
2023-05-22T17:56:00.879Z,100.0
2023-05-22T17:58:00.554Z,100.0
2023-05-22T18:00:00.545Z,100.0
2023-05-22T18:02:00.932Z,100.0
2023-05-22T18:04:00.620Z,100.0
2023-05-22T18:06:00.435Z,100.0
2023-05-22T18:08:00.932Z,100.0
2023-05-22T18:10:00.789Z,100.0
2023-05-22T18:12:00.404Z,100.0
2023-05-22T18:14:00.628Z,100.0
2023-05-22T18:16:00.798Z,100.0
2023-05-22T18:18:01.396Z,100.0
2023-05-22T18:20:00.965Z,100.0
2023-05-22T18:22:00.991Z,100.0
2023-05-22T18:24:00.551Z,100.0
2023-05-22T18:26:00.574Z,100.0
2023-05-22T18:28:00.529Z,100.0
2023-05-22T18:30:00.665Z,100.0
2023-05-22T18:32:00.990Z,100.0
2023-05-22T18:34:00.385Z,100.0
2023-05-22T18:36:00.372Z,100.0
2023-05-22T18:38:00.620Z,100.0
2023-05-22T18:40:00.957Z,100.0
2023-05-22T18:42:00.703Z,100.0
2023-05-22T18:44:00.872Z,100.0
2023-05-22T18:46:00.451Z,100.0
2023-05-22T18:48:00.602Z,100.0
2023-05-22T18:50:00.544Z,100.0
2023-05-22T18:52:00.596Z,100.0
2023-05-22T18:54:00.748Z,100.0
2023-05-22T18:56:00.643Z,100.0
2023-05-22T18:58:00.396Z,100.0
2023-05-22T19:00:00.573Z,100.0
2023-05-22T19:02:00.598Z,100.0
2023-05-22T19:04:00.528Z,100.0
2023-05-22T19:06:00.610Z,100.0
2023-05-22T19:08:00.872Z,100.0
2023-05-22T19:10:00.512Z,100.0
2023-05-22T19:12:00.760Z,100.0
2023-05-22T19:14:00.900Z,100.0
2023-05-22T19:16:01.681Z,100.0
2023-05-22T19:18:01.104Z,100.0
2023-05-22T19:20:01.078Z,100.0
2023-05-22T19:22:00.613Z,100.0
2023-05-22T19:24:00.445Z,100.0
2023-05-22T19:26:00.708Z,100.0
2023-05-22T19:28:00.584Z,100.0
2023-05-22T19:30:01.077Z,100.0
2023-05-22T19:32:00.569Z,100.0
2023-05-22T19:34:00.852Z,100.0
2023-05-22T19:36:00.479Z,100.0
2023-05-22T19:38:00.623Z,100.0
2023-05-22T19:40:00.556Z,100.0
2023-05-22T19:42:00.734Z,100.0
2023-05-22T19:44:01.021Z,100.0
2023-05-22T19:46:00.658Z,100.0
2023-05-22T19:48:00.539Z,100.0
2023-05-22T19:50:00.844Z,100.0
2023-05-22T19:52:00.704Z,100.0
2023-05-22T19:54:00.863Z,100.0
2023-05-22T19:56:00.871Z,100.0
2023-05-22T19:58:00.576Z,100.0
2023-05-22T20:00:00.659Z,100.0
2023-05-22T20:02:00.617Z,100.0
2023-05-22T20:04:00.603Z,100.0
2023-05-22T20:06:00.806Z,100.0
2023-05-22T20:08:00.832Z,100.0
2023-05-22T20:10:00.597Z,100.0
2023-05-22T20:12:00.572Z,100.0
2023-05-22T20:14:00.506Z,100.0
2023-05-22T20:16:00.897Z,100.0
2023-05-22T20:18:00.671Z,100.0
2023-05-22T20:20:00.453Z,100.0
2023-05-22T20:22:00.413Z,100.0
2023-05-22T20:24:02.052Z,100.0
2023-05-22T20:26:00.412Z,100.0
2023-05-22T20:28:01.911Z,100.0
2023-05-22T20:30:00.911Z,100.0
2023-05-22T20:32:01.092Z,100.0
2023-05-22T20:34:00.649Z,100.0
2023-05-22T20:36:00.496Z,100.0
2023-05-22T20:38:00.903Z,100.0
2023-05-22T20:40:00.747Z,100.0
2023-05-22T20:42:00.755Z,100.0
2023-05-22T20:44:00.878Z,100.0
2023-05-22T20:46:00.578Z,100.0
2023-05-22T20:48:00.583Z,100.0
2023-05-22T20:50:00.416Z,100.0
2023-05-22T20:52:01.182Z,100.0
2023-05-22T20:54:00.408Z,100.0
2023-05-22T20:56:00.843Z,100.0
2023-05-22T20:58:00.726Z,100.0
2023-05-22T21:00:00.920Z,100.0
2023-05-22T21:02:01.247Z,100.0
2023-05-22T21:04:00.568Z,100.0
2023-05-22T21:06:00.576Z,100.0
2023-05-22T21:08:00.974Z,100.0
2023-05-22T21:10:00.406Z,100.0
2023-05-22T21:12:01.418Z,100.0
2023-05-22T21:14:00.397Z,100.0
2023-05-22T21:16:00.569Z,100.0
2023-05-22T21:18:00.626Z,100.0
2023-05-22T21:20:00.975Z,100.0
2023-05-22T21:22:01.690Z,100.0
2023-05-22T21:24:00.751Z,100.0
2023-05-22T21:26:00.782Z,100.0
2023-05-22T21:28:00.967Z,100.0
2023-05-22T21:30:00.463Z,100.0
2023-05-22T21:32:00.885Z,100.0
2023-05-22T21:34:00.389Z,100.0
2023-05-22T21:36:00.622Z,100.0
2023-05-22T21:38:00.548Z,100.0
2023-05-22T21:40:00.835Z,100.0
2023-05-22T21:42:00.390Z,100.0
2023-05-22T21:44:00.701Z,100.0
2023-05-22T21:46:00.385Z,100.0
2023-05-22T21:48:00.882Z,100.0
2023-05-22T21:50:00.674Z,100.0
2023-05-22T21:52:00.624Z,100.0
2023-05-22T21:54:00.901Z,100.0
2023-05-22T21:56:00.855Z,100.0
2023-05-22T21:58:00.836Z,100.0
2023-05-22T22:00:00.508Z,100.0
2023-05-22T22:02:00.595Z,100.0
2023-05-22T22:04:00.801Z,100.0
2023-05-22T22:06:00.380Z,100.0
2023-05-22T22:08:00.846Z,100.0
2023-05-22T22:10:00.816Z,100.0
2023-05-22T22:12:00.420Z,100.0
2023-05-22T22:14:00.402Z,100.0
2023-05-22T22:16:00.914Z,100.0
2023-05-22T22:18:01.151Z,100.0
2023-05-22T22:20:01.023Z,100.0
2023-05-22T22:22:00.561Z,100.0
2023-05-22T22:24:00.556Z,100.0
2023-05-22T22:26:00.742Z,100.0
2023-05-22T22:28:00.758Z,100.0
2023-05-22T22:30:00.405Z,100.0
2023-05-22T22:32:01.026Z,100.0
2023-05-22T22:34:00.520Z,100.0
2023-05-22T22:36:00.752Z,100.0
2023-05-22T22:38:00.466Z,100.0
2023-05-22T22:40:01.115Z,100.0
2023-05-22T22:42:00.415Z,100.0
2023-05-22T22:44:00.570Z,100.0
2023-05-22T22:46:00.754Z,100.0
2023-05-22T22:48:00.721Z,100.0
2023-05-22T22:50:00.509Z,100.0
2023-05-22T22:52:00.788Z,100.0
2023-05-22T22:54:00.402Z,100.0
2023-05-22T22:56:01.029Z,100.0
2023-05-22T22:58:00.529Z,100.0
2023-05-22T23:00:00.711Z,100.0
2023-05-22T23:02:00.751Z,100.0
2023-05-22T23:04:00.424Z,100.0
2023-05-22T23:06:00.545Z,100.0
2023-05-22T23:08:00.567Z,100.0
2023-05-22T23:10:00.642Z,100.0
2023-05-22T23:12:00.865Z,100.0
2023-05-22T23:14:00.852Z,100.0
2023-05-22T23:16:00.451Z,100.0
2023-05-22T23:18:00.670Z,100.0
2023-05-22T23:20:00.827Z,100.0
2023-05-22T23:22:00.404Z,100.0
2023-05-22T23:24:01.791Z,100.0
2023-05-22T23:26:00.482Z,100.0
2023-05-22T23:28:00.452Z,100.0
2023-05-22T23:30:00.406Z,100.0
2023-05-22T23:32:00.919Z,100.0
2023-05-22T23:34:00.488Z,100.0
2023-05-22T23:36:00.623Z,100.0
2023-05-22T23:38:00.559Z,100.0
2023-05-22T23:40:00.457Z,100.0
2023-05-22T23:42:00.615Z,100.0
2023-05-22T23:44:00.864Z,100.0
2023-05-22T23:46:00.537Z,100.0
2023-05-22T23:48:00.613Z,100.0
2023-05-22T23:50:00.556Z,100.0
2023-05-22T23:52:00.589Z,100.0
2023-05-22T23:54:00.458Z,100.0
2023-05-22T23:56:00.926Z,100.0
2023-05-22T23:58:00.393Z,100.0
